createdAt,value
2023-03-03T00:01:43.131Z,86.02
2023-03-03T00:04:11.516Z,85.41
2023-03-03T00:06:40.092Z,85.70
2023-03-03T00:09:08.755Z,85.83
2023-03-03T00:11:37.426Z,86.12
2023-03-03T00:14:24.024Z,85.26
2023-03-03T00:16:53.886Z,85.43
2023-03-03T00:19:23.357Z,86.17
2023-03-03T00:21:53.552Z,85.33
2023-03-03T00:24:24.714Z,86.14
2023-03-03T00:26:55.652Z,85.17
2023-03-03T00:29:35.915Z,85.30
2023-03-03T00:32:26.689Z,85.66
2023-03-03T00:34:57.161Z,85.60
2023-03-03T00:37:31.243Z,85.84
2023-03-03T00:40:25.844Z,85.95
2023-03-03T00:42:56.544Z,85.36
2023-03-03T00:45:43.895Z,85.91
2023-03-03T00:48:28.707Z,86.03
2023-03-03T00:50:59.455Z,86.09
2023-03-03T00:53:29.692Z,85.71
2023-03-03T00:55:59.510Z,85.56
2023-03-03T00:58:28.320Z,85.93
2023-03-03T01:00:58.933Z,86.05
2023-03-03T01:03:28.942Z,86.30
2023-03-03T01:05:57.530Z,85.79
2023-03-03T01:08:26.428Z,86.08
2023-03-03T01:10:58.293Z,86.25
2023-03-03T01:13:31.070Z,86.14
2023-03-03T01:16:00.677Z,86.12
2023-03-03T01:18:31.184Z,86.36
2023-03-03T01:20:59.763Z,86.30
2023-03-03T01:23:28.189Z,86.11
2023-03-03T01:25:56.570Z,86.46
2023-03-03T01:28:24.946Z,86.64
2023-03-03T01:30:53.989Z,86.50
2023-03-03T01:33:22.446Z,86.69
2023-03-03T01:35:52.154Z,86.54
2023-03-03T01:38:20.581Z,85.94
2023-03-03T01:40:55.247Z,86.36
2023-03-03T01:43:23.810Z,86.87
2023-03-03T01:46:30.691Z,85.81
2023-03-03T01:49:03.735Z,87.00
2023-03-03T01:51:38.434Z,86.48
2023-03-03T01:54:14.800Z,86.63
2023-03-03T01:56:44.499Z,86.46
2023-03-03T01:59:18.658Z,86.63
2023-03-03T02:01:48.915Z,86.75
2023-03-03T02:04:19.401Z,86.95
2023-03-03T02:06:55.430Z,86.65
2023-03-03T02:09:30.942Z,86.66
2023-03-03T02:12:04.202Z,86.15
2023-03-03T02:14:32.658Z,86.55
2023-03-03T02:17:01.154Z,87.22
2023-03-03T02:19:38.296Z,87.21
2023-03-03T02:22:08.801Z,86.54
2023-03-03T02:24:44.858Z,86.71
2023-03-03T02:27:14.705Z,86.48
2023-03-03T02:29:42.968Z,86.71
2023-03-03T02:32:11.394Z,86.95
2023-03-03T02:34:52.904Z,86.39
2023-03-03T02:37:22.184Z,86.60
2023-03-03T02:39:50.518Z,86.45
2023-03-03T02:42:23.337Z,87.12
2023-03-03T02:44:52.000Z,86.56
2023-03-03T02:47:20.369Z,86.56
2023-03-03T02:49:49.221Z,87.44
2023-03-03T02:52:19.106Z,87.46
2023-03-03T02:54:47.510Z,87.05
2023-03-03T02:57:15.890Z,87.15
2023-03-03T02:59:45.602Z,87.62
2023-03-03T03:02:13.884Z,86.91
2023-03-03T03:04:42.450Z,86.84
2023-03-03T03:07:11.888Z,87.39
2023-03-03T03:09:40.274Z,87.88
2023-03-03T03:12:08.726Z,87.43
2023-03-03T03:14:37.251Z,87.62
2023-03-03T03:17:06.941Z,86.78
2023-03-03T03:19:35.302Z,86.88
2023-03-03T03:22:04.428Z,87.26
2023-03-03T03:24:32.707Z,87.10
2023-03-03T03:27:00.975Z,87.42
2023-03-03T03:29:29.260Z,87.80
2023-03-03T03:31:57.553Z,87.07
2023-03-03T03:34:27.337Z,86.99
2023-03-03T03:36:56.482Z,87.55
2023-03-03T03:39:24.799Z,87.08
2023-03-03T03:41:53.171Z,87.11
2023-03-03T03:44:21.547Z,88.10
2023-03-03T03:46:49.930Z,88.07
2023-03-03T03:49:20.500Z,87.86
2023-03-03T03:51:50.611Z,87.12
2023-03-03T03:54:18.979Z,87.24
2023-03-03T03:56:47.335Z,87.91
2023-03-03T03:59:15.713Z,88.49
2023-03-03T04:01:44.056Z,88.23
2023-03-03T04:04:12.364Z,87.76
2023-03-03T04:06:41.083Z,87.84
2023-03-03T04:09:10.807Z,88.09
2023-03-03T04:11:39.184Z,88.00
2023-03-03T04:14:07.557Z,88.53
2023-03-03T04:16:35.933Z,88.08
2023-03-03T04:19:04.306Z,87.57
2023-03-03T04:21:32.587Z,87.76
2023-03-03T04:24:00.935Z,88.31
2023-03-03T04:26:31.066Z,87.46
2023-03-03T04:29:00.188Z,88.53
2023-03-03T04:31:28.901Z,88.37
2023-03-03T04:33:57.307Z,88.39
2023-03-03T04:36:25.943Z,88.67
2023-03-03T04:38:54.439Z,88.53
2023-03-03T04:41:22.854Z,87.81
2023-03-03T04:43:52.693Z,88.11
2023-03-03T04:46:21.876Z,87.80
2023-03-03T04:48:50.241Z,87.73
2023-03-03T04:51:18.748Z,88.01
2023-03-03T04:53:47.449Z,87.87
2023-03-03T04:56:15.988Z,88.53
2023-03-03T04:58:44.446Z,88.33
2023-03-03T05:01:15.142Z,88.41
2023-03-03T05:03:44.083Z,88.34
2023-03-03T05:06:12.713Z,87.91
2023-03-03T05:08:43.189Z,87.68
2023-03-03T05:11:11.762Z,88.13
2023-03-03T05:13:40.696Z,88.21
2023-03-03T05:16:10.244Z,88.24
2023-03-03T05:18:40.331Z,88.82
2023-03-03T05:21:09.036Z,87.93
2023-03-03T05:23:38.570Z,87.90
2023-03-03T05:26:07.686Z,87.78
2023-03-03T05:28:36.079Z,88.25
2023-03-03T05:31:04.566Z,88.24
2023-03-03T05:33:33.170Z,88.63
2023-03-03T05:36:03.113Z,87.94
2023-03-03T05:38:31.823Z,88.03
2023-03-03T05:41:00.174Z,89.11
2023-03-03T05:43:29.285Z,87.92
2023-03-03T05:45:58.029Z,88.36
2023-03-03T05:48:26.824Z,88.63
2023-03-03T05:50:55.185Z,88.97
2023-03-03T05:53:25.211Z,88.41
2023-03-03T05:55:59.538Z,88.78
2023-03-03T05:58:28.254Z,88.65
2023-03-03T06:00:57.054Z,88.37
2023-03-03T06:03:25.400Z,88.69
2023-03-03T06:05:54.621Z,88.02
2023-03-03T06:08:24.617Z,88.31
2023-03-03T06:10:53.216Z,88.21
2023-03-03T06:13:21.625Z,88.19
2023-03-03T06:15:49.997Z,88.69
2023-03-03T06:18:18.313Z,88.79
2023-03-03T06:20:46.935Z,88.84
2023-03-03T06:23:15.223Z,88.82
2023-03-03T06:25:44.954Z,88.17
2023-03-03T06:28:13.370Z,87.99
2023-03-03T06:30:42.240Z,88.37
2023-03-03T06:33:10.490Z,89.15
2023-03-03T06:35:39.307Z,88.46
2023-03-03T06:38:07.733Z,88.73
2023-03-03T06:40:36.324Z,88.95
2023-03-03T06:43:06.440Z,88.65
2023-03-03T06:45:35.449Z,88.51
2023-03-03T06:48:04.176Z,88.70
2023-03-03T06:50:32.563Z,89.17
2023-03-03T06:53:11.580Z,88.40
2023-03-03T06:55:40.619Z,88.07
2023-03-03T06:58:16.076Z,88.53
2023-03-03T07:00:47.321Z,88.10
2023-03-03T07:03:18.727Z,87.91
2023-03-03T07:05:47.208Z,88.76
2023-03-03T07:08:17.636Z,88.02
2023-03-03T07:10:48.109Z,88.40
2023-03-03T07:13:22.946Z,87.79
2023-03-03T07:15:54.062Z,88.69
2023-03-03T07:18:36.609Z,88.21
2023-03-03T07:21:18.858Z,87.52
2023-03-03T07:23:49.642Z,87.65
2023-03-03T07:26:22.729Z,88.46
2023-03-03T07:28:56.472Z,88.01
2023-03-03T07:31:33.178Z,87.31
2023-03-03T07:34:02.885Z,87.91
2023-03-03T07:36:36.848Z,88.36
2023-03-03T07:39:21.275Z,87.28
2023-03-03T07:41:49.863Z,87.84
2023-03-03T07:44:24.219Z,87.45
2023-03-03T07:46:52.777Z,88.03
2023-03-03T07:49:30.654Z,88.18
2023-03-03T07:52:01.413Z,88.23
2023-03-03T07:54:37.411Z,87.89
2023-03-03T07:57:22.388Z,88.53
2023-03-03T07:59:55.436Z,87.49
2023-03-03T08:02:41.782Z,88.56
2023-03-03T08:05:31.541Z,87.94
2023-03-03T08:08:17.813Z,88.32
2023-03-03T08:10:49.985Z,87.26
2023-03-03T08:13:21.685Z,87.79
2023-03-03T08:15:54.593Z,87.33
2023-03-03T08:18:30.405Z,87.15
2023-03-03T08:21:00.414Z,88.13
2023-03-03T08:23:29.028Z,87.70
2023-03-03T08:25:57.399Z,87.48
2023-03-03T08:28:25.777Z,87.31
2023-03-03T08:31:08.913Z,87.10
2023-03-03T08:33:43.525Z,88.08
2023-03-03T08:36:12.486Z,87.31
2023-03-03T08:38:42.092Z,88.16
2023-03-03T08:41:11.070Z,87.73
2023-03-03T08:43:39.592Z,88.33
2023-03-03T08:46:10.425Z,87.31
2023-03-03T08:48:39.370Z,87.53
2023-03-03T08:51:07.726Z,87.35
2023-03-03T08:53:38.372Z,87.49
2023-03-03T08:56:08.003Z,88.11
2023-03-03T08:58:36.798Z,87.76
2023-03-03T09:01:05.626Z,87.64
2023-03-03T09:03:35.456Z,88.30
2023-03-03T09:06:04.224Z,88.16
2023-03-03T09:08:32.629Z,87.53
2023-03-03T09:11:01.414Z,88.36
2023-03-03T09:13:32.142Z,88.15
2023-03-03T09:16:00.743Z,88.20
2023-03-03T09:18:38.712Z,87.62
2023-03-03T09:21:23.331Z,88.01
2023-03-03T09:23:57.099Z,87.42
2023-03-03T09:26:32.725Z,87.77
2023-03-03T09:29:17.972Z,87.67
2023-03-03T09:31:50.119Z,87.57
2023-03-03T09:34:24.891Z,87.72
2023-03-03T09:36:55.036Z,87.22
2023-03-03T09:39:25.545Z,87.36
2023-03-03T09:42:44.649Z,87.18
2023-03-03T09:45:42.393Z,87.04
2023-03-03T09:48:41.910Z,87.24
2023-03-03T09:51:48.666Z,87.12
2023-03-03T09:54:42.315Z,86.91
2023-03-03T09:57:16.434Z,87.12
2023-03-03T10:00:12.670Z,86.69
2023-03-03T10:02:56.843Z,86.67
2023-03-03T10:05:41.454Z,86.44
2023-03-03T10:08:36.199Z,86.76
2023-03-03T10:11:16.611Z,86.08
2023-03-03T10:14:00.152Z,86.55
2023-03-03T10:16:50.607Z,86.26
2023-03-03T10:19:38.272Z,86.07
2023-03-03T10:22:21.379Z,85.62
2023-03-03T10:25:18.176Z,85.12
2023-03-03T10:28:08.160Z,85.95
2023-03-03T10:31:04.734Z,85.42
2023-03-03T10:33:44.068Z,86.10
2023-03-03T10:36:36.334Z,84.88
2023-03-03T10:39:25.076Z,85.14
2023-03-03T10:42:21.171Z,85.47
2023-03-03T10:45:14.471Z,85.25
2023-03-03T10:47:57.209Z,84.25
2023-03-03T10:50:34.537Z,84.92
2023-03-03T10:53:23.426Z,84.66
2023-03-03T10:56:11.176Z,84.04
2023-03-03T10:58:53.624Z,84.20
2023-03-03T11:01:31.716Z,83.07
2023-03-03T11:04:27.403Z,82.60
2023-03-03T11:07:05.900Z,81.88
2023-03-03T11:10:15.726Z,81.72
2023-03-03T11:12:57.624Z,81.18
2023-03-03T11:15:42.205Z,81.31
2023-03-03T11:18:37.007Z,80.54
2023-03-03T11:21:16.001Z,80.32
2023-03-03T11:24:00.023Z,79.51
2023-03-03T11:26:51.111Z,79.29
2023-03-03T11:30:09.649Z,78.92
2023-03-03T11:32:49.996Z,78.41
2023-03-03T11:35:28.249Z,78.01
2023-03-03T11:38:10.283Z,77.58
2023-03-03T11:40:49.642Z,76.69
2023-03-03T11:43:36.007Z,76.22
2023-03-03T11:46:09.282Z,75.88
2023-03-03T11:48:47.742Z,75.83
2023-03-03T11:51:23.279Z,75.40
2023-03-03T11:54:05.930Z,75.02
2023-03-03T11:56:41.563Z,75.16
2023-03-03T11:59:46.039Z,75.49
2023-03-03T12:02:49.487Z,75.68
2023-03-03T12:05:40.090Z,75.09
2023-03-03T12:08:32.620Z,74.09
2023-03-03T12:11:05.979Z,73.08
2023-03-03T12:13:51.924Z,72.20
2023-03-03T12:16:36.516Z,71.97
2023-03-03T12:19:21.295Z,70.60
2023-03-03T12:22:17.911Z,70.29
2023-03-03T12:25:15.654Z,69.50
2023-03-03T12:27:53.584Z,68.91
2023-03-03T12:31:03.339Z,68.99
2023-03-03T12:33:47.318Z,68.33
2023-03-03T12:36:38.849Z,68.07
2023-03-03T12:39:28.867Z,67.22
2023-03-03T12:42:11.793Z,66.79
2023-03-03T12:44:47.305Z,65.88
2023-03-03T12:47:25.280Z,65.37
2023-03-03T12:50:15.205Z,66.19
2023-03-03T12:52:54.647Z,65.13
2023-03-03T12:55:35.757Z,65.01
2023-03-03T12:58:15.534Z,65.26
2023-03-03T13:00:55.700Z,65.05
2023-03-03T13:03:49.643Z,64.74
2023-03-03T13:06:31.327Z,62.12
2023-03-03T13:09:31.320Z,60.97
2023-03-03T13:12:27.808Z,60.57
2023-03-03T13:15:04.749Z,60.23
2023-03-03T13:17:40.018Z,60.13
2023-03-03T13:20:24.336Z,60.15
2023-03-03T13:23:01.004Z,60.00
2023-03-03T13:25:44.449Z,59.87
2023-03-03T13:28:23.498Z,58.60
2023-03-03T13:30:59.245Z,58.13
2023-03-03T13:33:30.574Z,58.07
2023-03-03T13:36:02.460Z,58.34
2023-03-03T13:38:35.292Z,58.41
2023-03-03T13:41:18.891Z,58.27
2023-03-03T13:43:53.612Z,57.79
2023-03-03T13:46:37.105Z,57.53
2023-03-03T13:49:23.956Z,57.27
2023-03-03T13:52:02.355Z,57.48
2023-03-03T13:55:05.062Z,57.82
2023-03-03T13:58:12.238Z,57.82
2023-03-03T14:00:55.979Z,55.55
2023-03-03T14:03:53.888Z,52.75
2023-03-03T14:06:27.463Z,51.86
2023-03-03T14:09:17.842Z,52.54
2023-03-03T14:11:56.389Z,54.05
2023-03-03T14:14:45.971Z,54.85
2023-03-03T14:17:26.527Z,55.34
2023-03-03T14:20:05.037Z,55.58
2023-03-03T14:22:47.359Z,55.85
2023-03-03T14:25:16.978Z,56.04
2023-03-03T14:28:05.345Z,56.38
2023-03-03T14:30:39.038Z,56.64
2023-03-03T14:33:22.618Z,56.89
2023-03-03T14:36:06.726Z,56.93
2023-03-03T14:38:43.519Z,57.22
2023-03-03T14:41:20.392Z,57.45
2023-03-03T14:44:00.044Z,57.67
2023-03-03T14:46:40.396Z,58.32
2023-03-03T14:49:17.372Z,58.80
2023-03-03T14:51:49.357Z,58.72
2023-03-03T14:54:26.410Z,58.98
2023-03-03T14:57:09.062Z,59.35
2023-03-03T14:59:37.975Z,59.56
2023-03-03T15:02:32.455Z,60.26
2023-03-03T15:05:23.596Z,60.29
2023-03-03T15:07:56.794Z,60.30
2023-03-03T15:10:33.304Z,60.77
2023-03-03T15:13:36.279Z,60.62
2023-03-03T15:16:13.222Z,60.37
2023-03-03T15:19:28.390Z,61.37
2023-03-03T15:22:05.726Z,61.41
2023-03-03T15:24:43.612Z,62.01
2023-03-03T15:27:20.965Z,62.56
2023-03-03T15:30:02.811Z,62.81
2023-03-03T15:32:41.806Z,62.93
2023-03-03T15:35:27.193Z,62.68
2023-03-03T15:38:04.945Z,63.75
2023-03-03T15:40:40.138Z,63.77
2023-03-03T15:43:23.841Z,63.93
2023-03-03T15:46:03.565Z,64.33
2023-03-03T15:48:47.680Z,64.65
2023-03-03T15:51:29.121Z,63.92
2023-03-03T15:54:23.948Z,64.84
2023-03-03T15:56:58.520Z,65.01
2023-03-03T15:59:51.150Z,64.32
2023-03-03T16:02:24.382Z,64.38
2023-03-03T16:05:02.904Z,65.12
2023-03-03T16:07:43.840Z,65.30
2023-03-03T16:10:25.919Z,64.89
2023-03-03T16:13:04.606Z,65.24
2023-03-03T16:15:47.646Z,65.52
2023-03-03T16:18:31.839Z,65.06
2023-03-03T16:21:21.490Z,65.13
2023-03-03T16:23:55.459Z,65.60
2023-03-03T16:26:43.597Z,65.84
2023-03-03T16:29:48.316Z,66.00
2023-03-03T16:32:24.656Z,66.06
2023-03-03T16:34:59.286Z,66.30
2023-03-03T16:37:33.309Z,67.24
2023-03-03T16:40:12.746Z,66.35
2023-03-03T16:42:42.479Z,66.22
2023-03-03T16:45:24.522Z,66.50
2023-03-03T16:48:11.930Z,66.80
2023-03-03T16:50:49.460Z,66.95
2023-03-03T16:53:32.833Z,67.35
2023-03-03T16:56:09.661Z,67.91
2023-03-03T16:58:54.246Z,68.67
2023-03-03T17:01:36.537Z,67.95
2023-03-03T17:04:12.751Z,68.49
2023-03-03T17:06:49.733Z,68.76
2023-03-03T17:09:39.504Z,68.33
2023-03-03T17:12:31.577Z,68.62
2023-03-03T17:15:23.798Z,69.11
2023-03-03T17:18:03.196Z,69.93
2023-03-03T17:20:41.349Z,69.25
2023-03-03T17:23:50.956Z,69.09
2023-03-03T17:26:37.951Z,69.21
2023-03-03T17:29:41.001Z,69.06
2023-03-03T17:32:30.910Z,69.75
2023-03-03T17:35:19.185Z,69.67
2023-03-03T17:37:55.066Z,70.79
2023-03-03T17:40:49.980Z,70.53
2023-03-03T17:43:23.921Z,70.17
2023-03-03T17:45:56.894Z,71.14
2023-03-03T17:49:22.900Z,70.37
2023-03-03T17:52:36.678Z,70.70
2023-03-03T17:55:25.081Z,70.61
2023-03-03T17:58:17.466Z,71.18
2023-03-03T18:00:59.647Z,71.62
2023-03-03T18:04:16.566Z,71.87
2023-03-03T18:07:23.064Z,72.06
2023-03-03T18:10:16.620Z,71.72
2023-03-03T18:12:55.917Z,71.84
2023-03-03T18:15:41.598Z,71.99
2023-03-03T18:18:29.145Z,71.96
2023-03-03T18:21:09.474Z,71.90
2023-03-03T18:23:45.164Z,72.05
2023-03-03T18:26:39.920Z,72.83
2023-03-03T18:29:26.320Z,72.48
2023-03-03T18:32:18.918Z,72.59
2023-03-03T18:34:47.620Z,72.68
2023-03-03T18:37:42.096Z,72.52
2023-03-03T18:40:35.024Z,71.73
2023-03-03T18:43:57.238Z,72.02
2023-03-03T18:46:55.699Z,73.06
2023-03-03T18:49:55.726Z,73.00
2023-03-03T18:52:28.485Z,73.03
2023-03-03T18:55:27.718Z,72.58
2023-03-03T18:58:40.917Z,72.47
2023-03-03T19:01:43.009Z,72.08
2023-03-03T19:04:25.895Z,73.04
2023-03-03T19:07:26.583Z,72.39
2023-03-03T19:09:58.926Z,73.57
2023-03-03T19:12:52.831Z,72.58
2023-03-03T19:15:57.115Z,73.37
2023-03-03T19:18:28.029Z,73.42
2023-03-03T19:21:02.620Z,73.66
2023-03-03T19:23:50.961Z,72.65
2023-03-03T19:27:04.121Z,73.25
2023-03-03T19:30:36.197Z,73.86
2023-03-03T19:33:30.261Z,73.17
2023-03-03T19:36:21.113Z,73.56
2023-03-03T19:39:05.049Z,72.85
2023-03-03T19:41:55.868Z,73.63
2023-03-03T19:44:48.618Z,73.29
2023-03-03T19:47:32.903Z,73.64
2023-03-03T19:50:32.476Z,73.43
2023-03-03T19:53:12.301Z,72.99
2023-03-03T19:55:58.989Z,74.14
2023-03-03T19:58:36.767Z,72.95
2023-03-03T20:01:17.123Z,73.13
2023-03-03T20:04:25.765Z,73.84
2023-03-03T20:06:57.868Z,73.36
2023-03-03T20:09:39.290Z,73.24
2023-03-03T20:12:30.626Z,73.81
2023-03-03T20:15:09.902Z,73.83
2023-03-03T20:17:52.402Z,74.06
2023-03-03T20:20:51.624Z,73.66
2023-03-03T20:23:30.700Z,73.34
2023-03-03T20:26:07.679Z,73.90
2023-03-03T20:28:58.725Z,72.84
2023-03-03T20:31:36.794Z,73.88
2023-03-03T20:34:15.565Z,73.21
2023-03-03T20:36:56.219Z,73.34
2023-03-03T20:39:53.716Z,72.66
2023-03-03T20:42:36.748Z,73.32
2023-03-03T20:45:22.250Z,72.93
2023-03-03T20:48:11.731Z,73.61
2023-03-03T20:50:55.190Z,72.79
2023-03-03T20:53:34.755Z,73.22
2023-03-03T20:56:13.356Z,73.20
2023-03-03T20:58:58.277Z,73.27
2023-03-03T21:01:36.335Z,73.46
2023-03-03T21:04:23.563Z,73.21
2023-03-03T21:06:52.772Z,73.03
2023-03-03T21:09:28.829Z,73.10
2023-03-03T21:12:00.006Z,73.07
2023-03-03T21:14:30.945Z,72.96
2023-03-03T21:17:02.926Z,73.40
2023-03-03T21:19:33.622Z,73.68
2023-03-03T21:22:03.293Z,73.78
2023-03-03T21:24:52.866Z,73.47
2023-03-03T21:27:31.734Z,74.05
2023-03-03T21:30:13.384Z,74.06
2023-03-03T21:32:44.651Z,73.11
2023-03-03T21:35:15.809Z,73.44
2023-03-03T21:37:48.872Z,73.69
2023-03-03T21:40:23.505Z,73.74
2023-03-03T21:42:55.527Z,73.53
2023-03-03T21:45:24.432Z,73.62
2023-03-03T21:47:54.900Z,73.49
2023-03-03T21:50:23.499Z,73.32
2023-03-03T21:52:52.162Z,73.27
2023-03-03T21:55:20.960Z,73.48
2023-03-03T21:57:49.397Z,73.27
2023-03-03T22:00:21.148Z,73.11
2023-03-03T22:02:49.598Z,74.14
2023-03-03T22:05:18.533Z,73.52
2023-03-03T22:07:46.935Z,73.01
2023-03-03T22:10:15.815Z,73.91
2023-03-03T22:12:44.197Z,74.20
2023-03-03T22:15:12.943Z,73.48
2023-03-03T22:17:43.247Z,73.83
2023-03-03T22:20:14.727Z,73.25
2023-03-03T22:22:43.331Z,72.80
2023-03-03T22:25:12.024Z,73.91
2023-03-03T22:27:40.352Z,73.13
2023-03-03T22:30:10.883Z,73.25
2023-03-03T22:32:39.208Z,73.28
2023-03-03T22:35:10.978Z,72.99
2023-03-03T22:37:39.845Z,73.19
2023-03-03T22:40:10.520Z,72.85
2023-03-03T22:42:39.292Z,72.93
2023-03-03T22:45:10.186Z,72.75
2023-03-03T22:47:38.830Z,72.35
2023-03-03T22:50:10.813Z,72.70
2023-03-03T22:52:39.233Z,72.31
2023-03-03T22:55:09.268Z,72.84
2023-03-03T22:57:37.799Z,72.95
2023-03-03T23:00:09.265Z,72.97
2023-03-03T23:02:37.582Z,72.39
2023-03-03T23:05:08.677Z,72.14
2023-03-03T23:07:41.547Z,72.20
2023-03-03T23:10:11.980Z,73.00
2023-03-03T23:12:40.660Z,72.45
2023-03-03T23:15:13.436Z,72.69
2023-03-03T23:17:42.328Z,72.14
2023-03-03T23:20:13.618Z,72.13
2023-03-03T23:22:43.545Z,71.78
2023-03-03T23:25:14.265Z,72.25
2023-03-03T23:27:42.975Z,72.81
2023-03-03T23:30:15.358Z,72.46
2023-03-03T23:32:43.911Z,72.28
2023-03-03T23:35:12.315Z,72.75
2023-03-03T23:37:42.368Z,72.16
2023-03-03T23:40:13.366Z,72.44
2023-03-03T23:42:41.878Z,72.35
2023-03-03T23:45:12.343Z,72.07
2023-03-03T23:47:41.370Z,72.69
2023-03-03T23:50:12.022Z,72.82
2023-03-03T23:52:40.457Z,72.44
2023-03-03T23:55:11.954Z,72.07
2023-03-03T23:57:40.484Z,72.02
